createdAt,value
2019-04-25T00:01:26.890Z,10.30
2019-04-25T00:03:56.174Z,10.00
2019-04-25T00:06:25.946Z,10.90
2019-04-25T00:08:55.233Z,10.40
2019-04-25T00:11:24.905Z,10.20
2019-04-25T00:13:54.297Z,10.80
2019-04-25T00:16:25.870Z,10.67
2019-04-25T00:18:55.135Z,10.60
2019-04-25T00:21:43.355Z,10.03
2019-04-25T00:24:31.815Z,9.37
2019-04-25T00:27:02.192Z,9.70
2019-04-25T00:29:31.970Z,10.30
2019-04-25T00:32:01.746Z,9.07
2019-04-25T00:34:31.658Z,9.70
2019-04-25T00:37:02.579Z,9.27
2019-04-25T00:39:32.088Z,9.93
2019-04-25T00:42:02.350Z,9.20
2019-04-25T00:44:32.096Z,9.50
2019-04-25T00:47:02.470Z,8.47
2019-04-25T00:49:32.300Z,9.43
2019-04-25T00:52:02.086Z,9.37
2019-04-25T00:54:31.557Z,8.87
2019-04-25T00:57:02.160Z,9.23
2019-04-25T00:59:49.282Z,8.67
2019-04-25T01:02:33.113Z,9.87
2019-04-25T01:05:02.626Z,9.17
2019-04-25T01:07:32.374Z,9.17
2019-04-25T01:10:02.888Z,8.97
2019-04-25T01:12:32.232Z,8.60
2019-04-25T01:15:01.765Z,8.60
2019-04-25T01:17:31.645Z,8.80
2019-04-25T01:20:00.916Z,9.00
2019-04-25T01:22:30.182Z,8.73
2019-04-25T01:24:59.461Z,8.70
2019-04-25T01:27:28.754Z,8.87
2019-04-25T01:29:58.018Z,8.37
2019-04-25T01:32:35.369Z,8.67
2019-04-25T01:35:21.107Z,8.43
2019-04-25T01:38:13.907Z,8.20
2019-04-25T01:40:57.342Z,7.90
2019-04-25T01:43:59.622Z,8.07
2019-04-25T01:46:29.361Z,7.47
2019-04-25T01:48:58.729Z,7.70
2019-04-25T01:51:28.206Z,7.77
2019-04-25T01:53:57.473Z,8.80
2019-04-25T01:56:26.758Z,7.30
2019-04-25T01:58:56.030Z,7.60
2019-04-25T02:01:25.281Z,7.77
2019-04-25T02:03:55.471Z,8.03
2019-04-25T02:06:24.947Z,8.27
2019-04-25T02:08:55.223Z,8.07
2019-04-25T02:11:40.814Z,8.33
2019-04-25T02:14:10.449Z,7.70
2019-04-25T02:16:39.750Z,7.80
2019-04-25T02:19:09.065Z,7.60
2019-04-25T02:21:38.430Z,7.17
2019-04-25T02:24:07.824Z,7.53
2019-04-25T02:26:37.073Z,8.00
2019-04-25T02:29:06.426Z,7.50
2019-04-25T02:31:35.697Z,7.80
2019-04-25T02:34:08.378Z,7.03
2019-04-25T02:36:35.976Z,7.60
2019-04-25T02:39:10.838Z,7.60
2019-04-25T02:41:40.109Z,8.03
2019-04-25T02:44:10.219Z,7.63
2019-04-25T02:47:00.571Z,7.13
2019-04-25T02:49:40.058Z,8.13
2019-04-25T02:52:18.088Z,7.17
2019-04-25T02:54:47.710Z,7.50
2019-04-25T02:57:17.003Z,7.57
2019-04-25T02:59:46.315Z,6.93
2019-04-25T03:02:15.985Z,8.47
2019-04-25T03:04:45.411Z,7.33
2019-04-25T03:07:17.506Z,7.43
2019-04-25T03:09:45.793Z,7.00
2019-04-25T03:12:29.623Z,7.03
2019-04-25T03:14:46.254Z,7.50
2019-04-25T03:17:15.545Z,6.97
2019-04-25T03:20:16.073Z,7.20
2019-04-25T03:22:45.339Z,7.57
2019-04-25T03:25:17.490Z,8.10
2019-04-25T03:27:45.966Z,8.20
2019-04-25T03:30:17.926Z,7.70
2019-04-25T03:32:46.964Z,7.97
2019-04-25T03:35:16.214Z,7.50
2019-04-25T03:37:45.549Z,7.50
2019-04-25T03:40:14.966Z,7.50
2019-04-25T03:42:44.229Z,7.83
2019-04-25T03:45:14.799Z,8.73
2019-04-25T03:47:44.209Z,7.73
2019-04-25T03:50:13.951Z,8.13
2019-04-25T03:52:43.656Z,8.80
2019-04-25T03:55:14.411Z,7.87
2019-04-25T03:57:44.341Z,8.40
2019-04-25T04:00:14.662Z,8.07
2019-04-25T04:02:44.437Z,7.43
2019-04-25T04:05:14.907Z,7.93
2019-04-25T04:07:44.422Z,8.20
2019-04-25T04:10:15.142Z,8.03
2019-04-25T04:12:44.881Z,7.77
2019-04-25T04:15:15.849Z,8.20
2019-04-25T04:18:05.945Z,7.10
2019-04-25T04:20:53.990Z,7.13
2019-04-25T04:23:33.206Z,7.60
2019-04-25T04:26:03.323Z,7.47
2019-04-25T04:28:33.716Z,7.13
2019-04-25T04:31:03.701Z,8.07
2019-04-25T04:33:34.609Z,7.33
2019-04-25T04:36:04.034Z,7.43
2019-04-25T04:38:34.209Z,7.37
2019-04-25T04:41:04.025Z,6.70
2019-04-25T04:43:34.227Z,7.60
2019-04-25T04:46:04.030Z,7.30
2019-04-25T04:48:34.205Z,7.27
2019-04-25T04:51:03.611Z,7.43
2019-04-25T04:53:35.616Z,7.07
2019-04-25T04:56:04.271Z,8.03
2019-04-25T04:58:34.302Z,6.90
2019-04-25T05:01:10.230Z,7.53
2019-04-25T05:03:56.107Z,7.30
2019-04-25T05:06:31.387Z,7.53
2019-04-25T05:09:08.901Z,7.00
2019-04-25T05:11:38.281Z,7.60
2019-04-25T05:14:07.635Z,7.30
2019-04-25T05:16:36.961Z,6.97
2019-04-25T05:19:06.241Z,7.67
2019-04-25T05:21:35.549Z,7.17
2019-04-25T05:24:04.967Z,7.00
2019-04-25T05:26:34.244Z,7.30
2019-04-25T05:29:03.712Z,7.23
2019-04-25T05:31:48.577Z,6.70
2019-04-25T05:34:18.292Z,6.17
2019-04-25T05:36:47.782Z,6.97
2019-04-25T05:39:18.051Z,6.90
2019-04-25T05:42:07.730Z,6.80
2019-04-25T05:44:37.192Z,6.13
2019-04-25T05:47:06.502Z,6.77
2019-04-25T05:49:35.817Z,7.00
2019-04-25T05:52:05.105Z,5.87
2019-04-25T05:54:34.575Z,6.93
2019-04-25T05:57:04.007Z,6.33
2019-04-25T05:59:33.815Z,6.60
2019-04-25T06:02:03.906Z,6.73
2019-04-25T06:04:33.677Z,6.87
2019-04-25T06:07:03.134Z,5.53
2019-04-25T06:09:54.608Z,6.07
2019-04-25T06:12:45.801Z,6.10
2019-04-25T06:15:15.418Z,6.03
2019-04-25T06:18:19.762Z,6.40
2019-04-25T06:20:50.002Z,6.30
2019-04-25T06:23:39.461Z,6.27
2019-04-25T06:26:22.834Z,5.60
2019-04-25T06:28:53.606Z,6.23
2019-04-25T06:31:21.405Z,5.50
2019-04-25T06:34:14.153Z,5.47
2019-04-25T06:37:10.170Z,5.33
2019-04-25T06:39:47.698Z,5.90
2019-04-25T06:42:21.145Z,5.03
2019-04-25T06:45:16.149Z,5.13
2019-04-25T06:47:59.383Z,5.83
2019-04-25T06:50:29.053Z,4.93
2019-04-25T06:52:58.565Z,5.07
2019-04-25T06:55:30.159Z,5.37
2019-04-25T06:58:09.192Z,5.90
2019-04-25T07:00:40.555Z,5.53
2019-04-25T07:03:07.121Z,5.70
2019-04-25T07:05:40.551Z,5.47
2019-04-25T07:08:10.260Z,5.17
2019-04-25T07:10:41.085Z,5.57
2019-04-25T07:13:19.069Z,5.07
2019-04-25T07:15:56.621Z,5.87
2019-04-25T07:18:30.516Z,4.90
2019-04-25T07:20:57.239Z,5.67
2019-04-25T07:23:26.530Z,5.43
2019-04-25T07:26:21.238Z,5.10
2019-04-25T07:29:17.714Z,5.17
2019-04-25T07:32:14.463Z,5.30
2019-04-25T07:34:43.822Z,4.47
2019-04-25T07:37:13.383Z,4.90
2019-04-25T07:39:44.182Z,4.90
2019-04-25T07:42:14.072Z,5.27
2019-04-25T07:44:52.151Z,5.10
2019-04-25T07:47:16.056Z,4.80
2019-04-25T07:49:45.429Z,4.80
2019-04-25T07:52:14.718Z,5.10
2019-04-25T07:54:44.079Z,4.77
2019-04-25T07:57:14.254Z,5.13
2019-04-25T07:59:43.699Z,4.57
2019-04-25T08:02:16.437Z,4.93
2019-04-25T08:04:45.701Z,4.83
2019-04-25T08:07:31.617Z,4.40
2019-04-25T08:10:04.093Z,5.20
2019-04-25T08:12:37.578Z,4.83
2019-04-25T08:15:15.450Z,4.23
2019-04-25T08:18:04.061Z,4.50
2019-04-25T08:20:34.747Z,4.47
2019-04-25T08:23:05.388Z,4.40
2019-04-25T08:25:39.197Z,4.60
2019-04-25T08:28:07.481Z,3.98
2019-04-25T08:30:38.030Z,3.80
2019-04-25T08:33:07.673Z,4.95
2019-04-25T08:35:38.088Z,4.25
2019-04-25T08:38:07.591Z,4.28
2019-04-25T08:40:40.405Z,4.60
2019-04-25T08:43:11.050Z,4.53
2019-04-25T08:45:40.458Z,4.47
2019-04-25T08:48:09.836Z,4.65
2019-04-25T08:50:45.497Z,4.20
2019-04-25T08:53:20.620Z,4.60
2019-04-25T08:56:04.909Z,4.58
2019-04-25T08:59:05.513Z,4.20
2019-04-25T09:01:45.135Z,4.08
2019-04-25T09:04:25.526Z,4.20
2019-04-25T09:06:54.983Z,4.45
2019-04-25T09:09:24.309Z,4.55
2019-04-25T09:11:55.874Z,4.95
2019-04-25T09:14:27.499Z,3.75
2019-04-25T09:17:00.922Z,4.22
2019-04-25T09:19:30.245Z,4.97
2019-04-25T09:21:59.881Z,4.10
2019-04-25T09:24:29.171Z,3.65
2019-04-25T09:27:03.766Z,3.58
2019-04-25T09:29:35.398Z,4.03
2019-04-25T09:32:06.379Z,4.40
2019-04-25T09:34:36.221Z,4.22
2019-04-25T09:37:06.991Z,4.20
2019-04-25T09:39:47.590Z,4.65
2019-04-25T09:42:16.906Z,4.15
2019-04-25T09:45:15.203Z,4.45
2019-04-25T09:47:44.825Z,3.83
2019-04-25T09:50:26.677Z,3.77
2019-04-25T09:52:59.808Z,4.03
2019-04-25T09:55:41.740Z,3.95
2019-04-25T09:58:25.361Z,4.03
2019-04-25T10:01:03.834Z,3.90
2019-04-25T10:03:47.424Z,4.53
2019-04-25T10:06:21.389Z,4.12
2019-04-25T10:09:02.382Z,4.40
2019-04-25T10:11:59.703Z,3.00
2019-04-25T10:15:18.962Z,4.50
2019-04-25T10:18:14.114Z,4.00
2019-04-25T10:20:55.131Z,3.95
2019-04-25T10:23:29.290Z,3.87
2019-04-25T10:26:24.211Z,4.00
2019-04-25T10:28:52.503Z,3.92
2019-04-25T10:31:23.741Z,4.65
2019-04-25T10:33:59.872Z,3.92
2019-04-25T10:36:31.403Z,4.22
2019-04-25T10:39:10.315Z,4.42
2019-04-25T10:41:41.534Z,4.78
2019-04-25T10:47:10.459Z,4.75
2019-04-25T10:49:40.643Z,4.22
2019-04-25T10:52:11.470Z,5.08
2019-04-25T10:55:04.195Z,4.17
2019-04-25T10:58:22.518Z,4.42
2019-04-25T11:00:47.200Z,4.28
2019-04-25T11:03:34.835Z,4.28
2019-04-25T11:06:07.574Z,4.08
2019-04-25T11:08:41.941Z,4.10
2019-04-25T11:11:54.962Z,5.20
2019-04-25T11:30:46.519Z,4.25
2019-04-25T11:33:44.003Z,4.60
2019-04-25T11:36:11.032Z,4.17
2019-04-25T11:41:26.838Z,4.50
2019-04-25T11:42:37.715Z,4.50
2019-04-25T11:45:09.509Z,4.03
2019-04-25T11:48:23.882Z,4.17
2019-04-25T11:50:55.856Z,4.00
2019-04-25T11:54:30.281Z,4.10
2019-04-25T11:57:34.852Z,3.52
2019-04-25T12:00:07.391Z,3.77
2019-04-25T12:07:11.898Z,3.90
2019-04-25T12:09:42.883Z,3.80
2019-04-25T12:12:14.668Z,4.27
2019-04-25T12:14:55.289Z,3.63
2019-04-25T12:17:35.397Z,3.65
2019-04-25T12:20:25.659Z,3.62
2019-04-25T12:26:24.248Z,3.80
2019-04-25T12:29:04.387Z,3.40
2019-04-25T12:35:06.646Z,2.98
2019-04-25T12:37:36.008Z,3.50
2019-04-25T12:40:08.263Z,3.83
2019-04-25T12:42:39.059Z,4.10
2019-04-25T12:45:30.416Z,3.70
2019-04-25T12:48:23.443Z,3.25
2019-04-25T12:50:56.735Z,3.60
2019-04-25T12:53:26.020Z,3.90
2019-04-25T12:55:56.126Z,3.40
2019-04-25T12:58:25.621Z,3.52
2019-04-25T13:01:08.188Z,3.12
2019-04-25T13:03:45.091Z,3.33
2019-04-25T13:06:17.676Z,3.67
2019-04-25T13:08:51.206Z,3.80
2019-04-25T13:11:23.971Z,3.42
2019-04-25T13:13:58.931Z,3.50
2019-04-25T13:16:38.907Z,3.42
2019-04-25T13:19:19.794Z,3.83
2019-04-25T13:21:43.371Z,3.25
2019-04-25T13:24:12.913Z,3.72
2019-04-25T13:26:57.016Z,3.52
2019-04-25T13:29:45.090Z,3.42
2019-04-25T13:32:42.673Z,3.30
2019-04-25T13:35:20.769Z,3.15
2019-04-25T13:37:50.149Z,3.15
2019-04-25T13:40:21.653Z,3.60
2019-04-25T13:42:53.098Z,4.22
2019-04-25T13:45:26.581Z,3.45
2019-04-25T13:48:03.410Z,3.30
2019-04-25T13:50:40.916Z,3.70
2019-04-25T13:53:10.182Z,3.83
2019-04-25T13:55:44.338Z,3.15
2019-04-25T13:58:19.929Z,4.30
2019-04-25T14:00:52.028Z,3.40
2019-04-25T14:03:27.344Z,3.60
2019-04-25T14:05:58.258Z,3.62
2019-04-25T14:08:29.532Z,3.15
2019-04-25T14:11:01.124Z,3.10
2019-04-25T14:13:33.670Z,3.62
2019-04-25T14:16:43.363Z,3.17
2019-04-25T14:19:33.546Z,3.72
2019-04-25T14:22:04.343Z,3.50
2019-04-25T14:24:35.670Z,3.02
2019-04-25T14:27:05.195Z,3.10
2019-04-25T14:29:34.794Z,3.52
2019-04-25T14:32:06.389Z,3.20
2019-04-25T14:34:35.771Z,3.50
2019-04-25T14:37:05.385Z,3.40
2019-04-25T14:39:34.667Z,3.40
2019-04-25T14:42:03.953Z,3.35
2019-04-25T14:44:34.527Z,3.50
2019-04-25T14:47:06.669Z,3.58
2019-04-25T14:49:43.110Z,3.17
2019-04-25T14:52:13.953Z,3.95
2019-04-25T14:55:01.103Z,3.37
2019-04-25T14:57:31.887Z,3.47
2019-04-25T15:00:04.530Z,3.33
2019-04-25T15:02:34.207Z,3.27
2019-04-25T15:05:03.685Z,3.07
2019-04-25T15:07:32.955Z,3.30
2019-04-25T15:10:04.054Z,3.25
2019-04-25T15:12:33.882Z,3.80
2019-04-25T15:15:03.358Z,3.72
2019-04-25T15:17:43.935Z,3.65
2019-04-25T15:20:03.753Z,8.20
2019-04-25T15:22:33.110Z,4.35
2019-04-25T15:25:02.373Z,4.03
2019-04-25T15:27:31.631Z,3.77
2019-04-25T15:30:01.112Z,3.95
2019-04-25T15:32:33.165Z,3.65
2019-04-25T15:35:02.744Z,3.80
2019-04-25T15:37:37.342Z,3.75
2019-04-25T15:40:24.099Z,3.72
2019-04-25T15:43:31.458Z,3.67
2019-04-25T15:46:06.933Z,3.63
2019-04-25T15:48:36.255Z,3.20
2019-04-25T15:51:05.510Z,3.20
2019-04-25T15:53:35.130Z,3.60
2019-04-25T15:56:04.392Z,3.70
2019-04-25T15:58:33.647Z,3.62
2019-04-25T16:01:04.024Z,3.55
2019-04-25T16:03:33.289Z,3.63
2019-04-25T16:06:02.765Z,4.65
2019-04-25T16:08:32.960Z,3.67
2019-04-25T16:11:02.438Z,3.60
2019-04-25T16:13:32.289Z,3.58
2019-04-25T16:16:01.723Z,4.03
2019-04-25T16:18:30.957Z,3.80
2019-04-25T16:21:00.313Z,3.52
2019-04-25T16:23:30.258Z,3.50
2019-04-25T16:25:59.630Z,3.00
2019-04-25T16:28:28.931Z,3.87
2019-04-25T16:30:58.282Z,3.15
2019-04-25T16:33:28.987Z,3.90
2019-04-25T16:35:58.482Z,3.92
2019-04-25T16:38:29.692Z,3.37
2019-04-25T16:40:59.110Z,3.33
2019-04-25T16:43:30.188Z,3.70
2019-04-25T16:45:59.446Z,3.40
2019-04-25T16:48:28.960Z,3.23
2019-04-25T16:50:59.175Z,3.43
2019-04-25T16:53:28.551Z,3.47
2019-04-25T16:55:57.791Z,3.67
2019-04-25T16:58:27.041Z,3.80
2019-04-25T17:01:06.918Z,3.37
2019-04-25T17:03:37.394Z,3.60
2019-04-25T17:06:07.253Z,3.83
2019-04-25T17:08:37.667Z,3.17
2019-04-25T17:11:07.986Z,3.33
2019-04-25T17:13:42.633Z,3.90
2019-04-25T17:16:29.582Z,3.20
2019-04-25T17:19:03.406Z,3.80
2019-04-25T17:21:32.701Z,3.30
2019-04-25T17:24:02.013Z,3.50
2019-04-25T17:26:32.664Z,3.60
2019-04-25T17:29:04.635Z,3.22
2019-04-25T17:31:45.231Z,3.23
2019-04-25T17:34:21.797Z,3.70
2019-04-25T17:37:18.834Z,3.30
2019-04-25T17:40:00.594Z,3.23
2019-04-25T17:42:29.858Z,3.60
2019-04-25T17:44:59.141Z,3.00
2019-04-25T17:47:28.502Z,3.50
2019-04-25T17:49:57.833Z,3.03
2019-04-25T17:52:27.117Z,4.20
2019-04-25T17:54:56.381Z,3.77
2019-04-25T17:57:25.639Z,2.93
2019-04-25T17:59:54.939Z,3.80
2019-04-25T18:02:24.191Z,3.47
2019-04-25T18:04:53.564Z,3.80
2019-04-25T18:07:22.936Z,3.93
2019-04-25T18:09:52.196Z,4.00
2019-04-25T18:12:21.558Z,3.80
2019-04-25T18:14:51.526Z,4.93
2019-04-25T18:17:20.993Z,4.03
2019-04-25T18:20:04.405Z,4.00
2019-04-25T18:22:51.281Z,4.40
2019-04-25T18:25:48.547Z,4.77
2019-04-25T18:28:21.134Z,5.03
2019-04-25T18:30:50.396Z,5.93
2019-04-25T18:33:31.598Z,5.57
2019-04-25T18:36:22.486Z,6.20
2019-04-25T18:39:00.992Z,5.73
2019-04-25T18:41:37.954Z,6.10
2019-04-25T18:44:07.429Z,5.93
2019-04-25T18:46:40.407Z,5.30
2019-04-25T18:49:09.934Z,5.93
2019-04-25T18:51:39.271Z,6.80
2019-04-25T18:54:31.546Z,6.10
2019-04-25T18:57:19.798Z,5.20
2019-04-25T19:00:20.359Z,6.23
2019-04-25T19:03:07.766Z,5.20
2019-04-25T19:05:55.978Z,5.70
2019-04-25T19:08:25.278Z,5.87
2019-04-25T19:10:54.724Z,5.57
2019-04-25T19:13:24.089Z,5.93
2019-04-25T19:15:53.442Z,5.47
2019-04-25T19:18:22.707Z,5.60
2019-04-25T19:20:52.400Z,5.40
2019-04-25T19:23:21.850Z,5.40
2019-04-25T19:25:52.115Z,5.37
2019-04-25T19:28:21.537Z,5.63
2019-04-25T19:30:51.379Z,5.17
2019-04-25T19:33:34.700Z,5.17
2019-04-25T19:35:53.353Z,5.33
2019-04-25T19:38:22.713Z,5.00
2019-04-25T19:41:07.510Z,5.30
2019-04-25T19:43:54.819Z,4.63
2019-04-25T19:46:38.125Z,5.17
2019-04-25T19:49:08.289Z,5.07
2019-04-25T19:51:37.640Z,4.90
2019-04-25T19:54:07.090Z,5.13
2019-04-25T19:56:36.455Z,5.50
2019-04-25T19:59:06.031Z,4.60
2019-04-25T20:01:35.338Z,5.33
2019-04-25T20:04:13.556Z,4.93
2019-04-25T20:07:02.188Z,5.10
2019-04-25T20:10:02.316Z,5.00
2019-04-25T20:12:35.982Z,5.20
2019-04-25T20:15:05.933Z,5.17
2019-04-25T20:17:35.210Z,5.77
2019-04-25T20:20:05.055Z,5.07
2019-04-25T20:22:34.358Z,5.83
2019-04-25T20:25:03.634Z,5.80
2019-04-25T20:27:32.902Z,5.83
2019-04-25T20:30:02.441Z,5.80
2019-04-25T20:32:31.821Z,5.60
2019-04-25T20:35:01.109Z,5.70
2019-04-25T20:37:30.390Z,6.57
2019-04-25T20:39:59.678Z,5.50
2019-04-25T20:42:29.019Z,5.90
2019-04-25T20:44:58.269Z,6.07
2019-04-25T20:47:27.541Z,5.63
2019-04-25T20:49:57.577Z,5.50
2019-04-25T20:52:27.273Z,5.80
2019-04-25T20:54:56.980Z,5.63
2019-04-25T20:57:28.702Z,6.10
2019-04-25T20:59:58.127Z,5.67
2019-04-25T21:02:27.425Z,5.77
2019-04-25T21:04:56.873Z,5.50
2019-04-25T21:07:26.289Z,6.07
2019-04-25T21:09:55.549Z,5.43
2019-04-25T21:12:24.813Z,5.87
2019-04-25T21:15:15.793Z,6.00
2019-04-25T21:18:04.410Z,5.60
2019-04-25T21:20:33.680Z,6.60
2019-04-25T21:23:03.029Z,6.00
2019-04-25T21:25:32.408Z,6.30
2019-04-25T21:28:01.681Z,6.30
2019-04-25T21:30:31.013Z,5.30
2019-04-25T21:33:00.321Z,5.97
2019-04-25T21:35:29.961Z,5.83
2019-04-25T21:37:59.635Z,5.57
2019-04-25T21:40:48.066Z,5.80
2019-04-25T21:43:22.305Z,6.00
2019-04-25T21:45:51.918Z,5.50
2019-04-25T21:48:22.124Z,6.20
2019-04-25T21:50:53.480Z,5.30
2019-04-25T21:53:22.815Z,5.63
2019-04-25T21:55:53.194Z,5.70
2019-04-25T21:58:23.533Z,6.33
2019-04-25T22:01:16.639Z,5.87
2019-04-25T22:03:45.966Z,5.40
2019-04-25T22:06:17.764Z,5.40
2019-04-25T22:08:46.677Z,5.73
2019-04-25T22:11:16.061Z,5.63
2019-04-25T22:13:45.694Z,5.20
2019-04-25T22:16:15.353Z,6.37
2019-04-25T22:18:45.062Z,5.30
2019-04-25T22:21:14.601Z,5.77
2019-04-25T22:23:44.327Z,6.33
2019-04-25T22:26:13.670Z,5.70
2019-04-25T22:28:43.198Z,5.80
2019-04-25T22:31:17.537Z,5.47
2019-04-25T22:34:24.282Z,5.47
2019-04-25T22:36:53.541Z,5.47
2019-04-25T22:39:22.872Z,5.30
2019-04-25T22:41:52.513Z,5.90
2019-04-25T22:44:22.581Z,6.17
2019-04-25T22:46:52.320Z,5.73
2019-04-25T22:49:21.587Z,5.67
2019-04-25T22:51:50.963Z,5.23
2019-04-25T22:54:20.701Z,5.70
2019-04-25T22:56:50.025Z,6.70
2019-04-25T22:59:19.583Z,5.80
2019-04-25T23:02:06.543Z,6.17
2019-04-25T23:05:04.566Z,6.07
2019-04-25T23:07:25.462Z,6.33
2019-04-25T23:09:55.129Z,6.80
2019-04-25T23:12:24.763Z,5.83
2019-04-25T23:14:54.009Z,5.87
2019-04-25T23:17:23.346Z,5.73
2019-04-25T23:19:52.943Z,5.70
2019-04-25T23:22:22.197Z,6.27
2019-04-25T23:25:06.066Z,6.60
2019-04-25T23:27:53.106Z,5.90
2019-04-25T23:30:25.585Z,5.83
2019-04-25T23:32:54.847Z,7.67
2019-04-25T23:35:30.383Z,6.40
2019-04-25T23:37:55.167Z,7.23
2019-04-25T23:40:24.521Z,6.40
2019-04-25T23:42:54.057Z,6.93
2019-04-25T23:45:23.345Z,6.70
2019-04-25T23:47:52.613Z,6.33
2019-04-25T23:50:22.251Z,6.47
2019-04-25T23:52:51.557Z,6.83
2019-04-25T23:55:20.993Z,7.20
2019-04-25T23:57:50.249Z,7.10
